CheckWX is a tool to help pilots better visualize weather data.  It is not intended as a substitute for an official pre-flight weather briefing.

10:46:10 UTC

KDZB METAR
Horseshoe Bay Resort Airport
Horseshoe Bay, Texas, USA
Current

31 mins ago

KDZB 181015Z AUTO 00000KT 10SM SCT110 14/13 A2968 RMK AO2 T01420130
Observed
Apr-18 @ 10:15 UTC
Visibility
10 SM
Flight Rules
VFR
Cloud Levels
  • Scattered at 11,000' AGL
Temperature
14°C / 57°F
Dewpoint
13°C / 55°F
Humidity
94%
Altimeter
29.68" Hg
Pressure
1005.12 hPa
Previous

51 mins ago

KDZB 180955Z AUTO 00000KT 10SM SCT110 14/13 A2966 RMK AO2 LTG DSNT E AND SE P0001 T01410130
Observed
Apr-18 @ 09:55 UTC
Visibility
10 SM
Flight Rules
VFR
Cloud Levels
  • Scattered at 11,000' AGL
Temperature
14°C / 57°F
Dewpoint
13°C / 55°F
Humidity
94%
Altimeter
29.66" Hg
Pressure
1004.42 hPa
Current Rain
0.01"
Previous

1 hour ago

KDZB 180935Z AUTO 00000KT 10SM -RA SCT070 BKN100 OVC120 14/13 A2968 RMK AO2 P0001 T01410128
Observed
Apr-18 @ 09:35 UTC
Visibility
10 SM
Flight Rules
VFR
Conditions
Light Rain
Cloud Levels
  • Scattered at 7,000' AGL
  • Broken at 10,000' AGL
  • Overcast at 12,000' AGL
Temperature
14°C / 57°F
Dewpoint
13°C / 55°F
Humidity
94%
Altimeter
29.68" Hg
Pressure
1005.12 hPa
Current Rain
0.01"